VNKT METAR

Available data for VNKT from the past hour
KATHMANDU INTL A
Metar
VNKT 290650Z 09005KT 030V130 3500 BR FEW010 SCT025 BKN100 19/17 Q1016 NOSIG

06:50 UTC

Wind: 90° 5kt

Visibility: 3500 m

Sky: FEW 1000 ft

Temp: 19 deg C / 66.2 deg F

Dewpoint: 17 deg C / 62.6 deg F

Pressure: 1016 hPa

TAF
TAF VNKT 290500Z 2906/3006 16005KT 4000 BR FEW015 SCT030 BKN100 BECMG 2907/2908 28008KT 7000 FEW020 SCT030 BKN100 PROB40 TEMPO 2908/2912 VRB10KT 4000 -TSRA FEW025CB BKN100 BECMG 2914/2915 00000KT 6000 FEW010 SCT030 BKN100 BECMG 3000/3002 VRB02KT 3000 BR FEW015 SCT030 BKN100 PROB40 3001/3003 1500 BR BECMG 3004/3005 14005KT 5000 HZ/BR FEW015 SCT100

WARNING: the data listed  above is for informational purposes only and should be confirmed from official sources. Data presented here on this page are fetched from Aviation weather data from NOAA’s Aviation Digital Data Service.

How to see the Details of METAR Reading.

Click on the Triangle beside of the Word METAR.(Refer to Fig.1)

VNKTmetar